sensor_id;sensor_type;location;lat;lon;timestamp;pressure;altitude;pressure_sealevel;temperature;humidity
7966;BME280;4028;43.272;26.932;2022-07-12T00:01:06;99285.22;;;19.48;52.81
7966;BME280;4028;43.272;26.932;2022-07-12T00:03:33;99272.75;;;19.34;52.94
7966;BME280;4028;43.272;26.932;2022-07-12T00:05:58;99276.97;;;19.49;53.15
7966;BME280;4028;43.272;26.932;2022-07-12T00:08:24;99287.75;;;19.56;52.71
7966;BME280;4028;43.272;26.932;2022-07-12T00:10:50;99258.09;;;19.30;52.66
7966;BME280;4028;43.272;26.932;2022-07-12T00:13:15;99290.81;;;19.46;52.81
7966;BME280;4028;43.272;26.932;2022-07-12T00:15:42;99267.63;;;19.39;52.82
7966;BME280;4028;43.272;26.932;2022-07-12T00:18:07;99284.88;;;19.23;53.17
7966;BME280;4028;43.272;26.932;2022-07-12T00:20:33;99284.69;;;19.25;53.65
7966;BME280;4028;43.272;26.932;2022-07-12T00:22:59;99289.81;;;19.19;53.66
7966;BME280;4028;43.272;26.932;2022-07-12T00:25:25;99277.16;;;19.13;53.70
7966;BME280;4028;43.272;26.932;2022-07-12T00:27:51;99282.72;;;19.12;53.71
7966;BME280;4028;43.272;26.932;2022-07-12T00:30:17;99258.78;;;19.10;53.67
7966;BME280;4028;43.272;26.932;2022-07-12T00:32:43;99281.13;;;19.17;53.58
7966;BME280;4028;43.272;26.932;2022-07-12T00:35:08;99273.84;;;19.11;53.75
7966;BME280;4028;43.272;26.932;2022-07-12T00:37:34;99285.44;;;19.18;54.00
7966;BME280;4028;43.272;26.932;2022-07-12T00:40:00;99291.84;;;19.17;53.92
7966;BME280;4028;43.272;26.932;2022-07-12T00:42:26;99281.13;;;19.17;54.16
7966;BME280;4028;43.272;26.932;2022-07-12T00:44:52;99279.84;;;19.13;53.66
7966;BME280;4028;43.272;26.932;2022-07-12T00:47:27;99286.81;;;19.08;53.96
7966;BME280;4028;43.272;26.932;2022-07-12T00:49:53;99277.94;;;19.07;53.91
7966;BME280;4028;43.272;26.932;2022-07-12T00:52:19;99284.13;;;19.08;53.95
7966;BME280;4028;43.272;26.932;2022-07-12T00:54:45;99275.91;;;19.09;54.18
7966;BME280;4028;43.272;26.932;2022-07-12T00:57:10;99281.41;;;19.01;54.19
7966;BME280;4028;43.272;26.932;2022-07-12T00:59:36;99276.50;;;19.05;53.88
7966;BME280;4028;43.272;26.932;2022-07-12T01:02:01;99280.78;;;18.99;54.10
7966;BME280;4028;43.272;26.932;2022-07-12T01:04:27;99282.81;;;18.97;54.20
7966;BME280;4028;43.272;26.932;2022-07-12T01:06:54;99284.69;;;18.96;54.37
7966;BME280;4028;43.272;26.932;2022-07-12T01:09:20;99287.03;;;19.06;54.33
7966;BME280;4028;43.272;26.932;2022-07-12T01:11:45;99292.75;;;19.03;54.47
7966;BME280;4028;43.272;26.932;2022-07-12T01:14:11;99290.25;;;18.95;54.17
7966;BME280;4028;43.272;26.932;2022-07-12T01:16:39;99290.81;;;18.90;54.83
7966;BME280;4028;43.272;26.932;2022-07-12T01:19:06;99289.41;;;18.73;55.06
7966;BME280;4028;43.272;26.932;2022-07-12T01:21:34;99279.19;;;18.62;55.38
7966;BME280;4028;43.272;26.932;2022-07-12T01:24:02;99281.13;;;18.89;54.96
7966;BME280;4028;43.272;26.932;2022-07-12T01:26:27;99283.97;;;18.88;54.63
7966;BME280;4028;43.272;26.932;2022-07-12T01:28:53;99281.97;;;18.68;55.52
7966;BME280;4028;43.272;26.932;2022-07-12T01:31:20;99278.28;;;18.69;55.33
7966;BME280;4028;43.272;26.932;2022-07-12T01:33:45;99283.69;;;18.76;55.57
7966;BME280;4028;43.272;26.932;2022-07-12T01:36:11;99276.72;;;18.60;55.26
7966;BME280;4028;43.272;26.932;2022-07-12T01:38:37;99287.56;;;18.52;55.46
7966;BME280;4028;43.272;26.932;2022-07-12T01:41:02;99281.88;;;18.62;55.60
7966;BME280;4028;43.272;26.932;2022-07-12T01:43:28;99289.03;;;18.76;55.04
7966;BME280;4028;43.272;26.932;2022-07-12T01:45:54;99287.38;;;18.75;55.27
7966;BME280;4028;43.272;26.932;2022-07-12T01:48:19;99276.72;;;18.60;54.80
7966;BME280;4028;43.272;26.932;2022-07-12T01:50:45;99252.59;;;18.39;55.38
7966;BME280;4028;43.272;26.932;2022-07-12T01:53:11;99280.84;;;18.63;54.93
7966;BME280;4028;43.272;26.932;2022-07-12T01:55:37;99280.41;;;18.59;54.79
7966;BME280;4028;43.272;26.932;2022-07-12T01:58:03;99279.03;;;18.63;54.52
7966;BME280;4028;43.272;26.932;2022-07-12T02:00:29;99260.00;;;18.37;54.77
7966;BME280;4028;43.272;26.932;2022-07-12T02:02:55;99271.72;;;18.36;55.38
7966;BME280;4028;43.272;26.932;2022-07-12T02:05:20;99255.34;;;18.24;56.10
7966;BME280;4028;43.272;26.932;2022-07-12T02:07:46;99271.25;;;18.11;56.63
7966;BME280;4028;43.272;26.932;2022-07-12T02:10:13;99272.44;;;18.23;56.64
7966;BME280;4028;43.272;26.932;2022-07-12T02:12:39;99275.19;;;18.30;56.97
7966;BME280;4028;43.272;26.932;2022-07-12T02:15:06;99275.38;;;18.28;56.31
7966;BME280;4028;43.272;26.932;2022-07-12T02:17:32;99272.69;;;18.28;55.84
7966;BME280;4028;43.272;26.932;2022-07-12T02:19:58;99281.16;;;18.32;55.95
7966;BME280;4028;43.272;26.932;2022-07-12T02:22:23;99247.66;;;18.00;56.56
7966;BME280;4028;43.272;26.932;2022-07-12T02:24:49;99288.50;;;18.23;56.29
7966;BME280;4028;43.272;26.932;2022-07-12T02:27:16;99289.69;;;18.21;56.20
7966;BME280;4028;43.272;26.932;2022-07-12T02:29:41;99291.22;;;18.08;56.85
7966;BME280;4028;43.272;26.932;2022-07-12T02:32:07;99269.50;;;17.82;57.20
7966;BME280;4028;43.272;26.932;2022-07-12T02:34:33;99296.50;;;18.02;57.16
7966;BME280;4028;43.272;26.932;2022-07-12T02:36:58;99298.44;;;18.08;56.64
7966;BME280;4028;43.272;26.932;2022-07-12T02:39:24;99299.56;;;17.99;57.55
7966;BME280;4028;43.272;26.932;2022-07-12T02:41:50;99299.25;;;18.08;57.17
7966;BME280;4028;43.272;26.932;2022-07-12T02:44:16;99299.72;;;18.12;56.95
7966;BME280;4028;43.272;26.932;2022-07-12T02:46:41;99302.25;;;18.20;56.33
7966;BME280;4028;43.272;26.932;2022-07-12T02:49:07;99303.75;;;18.23;56.50
7966;BME280;4028;43.272;26.932;2022-07-12T02:51:32;99306.25;;;18.09;56.54
7966;BME280;4028;43.272;26.932;2022-07-12T02:53:58;99296.25;;;17.97;56.79
7966;BME280;4028;43.272;26.932;2022-07-12T02:56:25;99290.72;;;17.83;57.48
7966;BME280;4028;43.272;26.932;2022-07-12T02:58:51;99299.78;;;17.82;57.16
7966;BME280;4028;43.272;26.932;2022-07-12T03:01:16;99297.16;;;17.89;57.30
7966;BME280;4028;43.272;26.932;2022-07-12T03:03:42;99294.22;;;17.84;56.85
7966;BME280;4028;43.272;26.932;2022-07-12T03:06:07;99294.00;;;18.00;56.87
7966;BME280;4028;43.272;26.932;2022-07-12T03:08:33;99298.22;;;18.09;56.02
7966;BME280;4028;43.272;26.932;2022-07-12T03:10:58;99300.00;;;18.02;56.35
7966;BME280;4028;43.272;26.932;2022-07-12T03:13:24;99299.91;;;17.96;56.35
7966;BME280;4028;43.272;26.932;2022-07-12T03:15:50;99304.28;;;17.97;56.54
7966;BME280;4028;43.272;26.932;2022-07-12T03:18:16;99300.59;;;17.83;56.76
7966;BME280;4028;43.272;26.932;2022-07-12T03:20:43;99299.47;;;17.92;57.27
7966;BME280;4028;43.272;26.932;2022-07-12T03:23:08;99265.44;;;17.71;57.06
7966;BME280;4028;43.272;26.932;2022-07-12T03:25:34;99298.47;;;17.78;57.51
7966;BME280;4028;43.272;26.932;2022-07-12T03:28:00;99307.34;;;17.79;57.88
7966;BME280;4028;43.272;26.932;2022-07-12T03:30:26;99310.91;;;17.86;58.12
7966;BME280;4028;43.272;26.932;2022-07-12T03:32:52;99295.78;;;17.93;57.42
7966;BME280;4028;43.272;26.932;2022-07-12T03:35:18;99303.91;;;17.85;57.60
7966;BME280;4028;43.272;26.932;2022-07-12T03:37:48;99317.56;;;17.90;57.65
7966;BME280;4028;43.272;26.932;2022-07-12T03:40:15;99301.00;;;18.01;57.55
7966;BME280;4028;43.272;26.932;2022-07-12T03:42:42;99309.88;;;18.38;55.91
7966;BME280;4028;43.272;26.932;2022-07-12T03:45:09;99306.81;;;19.05;53.91
7966;BME280;4028;43.272;26.932;2022-07-12T03:47:34;99305.78;;;19.62;51.48
7966;BME280;4028;43.272;26.932;2022-07-12T03:50:06;99307.66;;;20.16;49.80
7966;BME280;4028;43.272;26.932;2022-07-12T03:52:32;99295.00;;;20.85;48.15
7966;BME280;4028;43.272;26.932;2022-07-12T03:54:59;99299.56;;;21.11;47.10
7966;BME280;4028;43.272;26.932;2022-07-12T03:57:25;99305.09;;;21.56;46.75
7966;BME280;4028;43.272;26.932;2022-07-12T03:59:52;99304.72;;;21.45;46.07
7966;BME280;4028;43.272;26.932;2022-07-12T04:02:17;99285.47;;;22.00;45.09
7966;BME280;4028;43.272;26.932;2022-07-12T04:04:43;99299.84;;;22.32;43.74
7966;BME280;4028;43.272;26.932;2022-07-12T04:07:10;99307.38;;;21.52;45.12
7966;BME280;4028;43.272;26.932;2022-07-12T04:09:35;99308.81;;;21.61;45.50
7966;BME280;4028;43.272;26.932;2022-07-12T04:12:01;99272.47;;;21.84;44.61
7966;BME280;4028;43.272;26.932;2022-07-12T04:14:27;99294.81;;;21.97;44.40
7966;BME280;4028;43.272;26.932;2022-07-12T04:16:54;99297.94;;;22.71;43.22
7966;BME280;4028;43.272;26.932;2022-07-12T04:19:19;99305.25;;;22.95;42.48
7966;BME280;4028;43.272;26.932;2022-07-12T04:21:49;99301.88;;;23.43;41.91
7966;BME280;4028;43.272;26.932;2022-07-12T04:24:14;99306.44;;;23.68;40.84
7966;BME280;4028;43.272;26.932;2022-07-12T04:26:40;99309.94;;;23.50;41.04
7966;BME280;4028;43.272;26.932;2022-07-12T04:29:06;99311.56;;;23.76;40.67
7966;BME280;4028;43.272;26.932;2022-07-12T04:31:31;99304.25;;;23.95;40.34
7966;BME280;4028;43.272;26.932;2022-07-12T04:33:57;99304.94;;;24.80;39.68
7966;BME280;4028;43.272;26.932;2022-07-12T04:36:22;99304.63;;;25.00;38.93
7966;BME280;4028;43.272;26.932;2022-07-12T04:38:48;99314.16;;;25.97;37.43
7966;BME280;4028;43.272;26.932;2022-07-12T04:41:14;99312.13;;;26.44;35.88
7966;BME280;4028;43.272;26.932;2022-07-12T04:43:40;99316.59;;;27.29;34.78
7966;BME280;4028;43.272;26.932;2022-07-12T04:46:09;99327.31;;;27.58;34.08
7966;BME280;4028;43.272;26.932;2022-07-12T04:48:35;99327.25;;;27.91;34.13
7966;BME280;4028;43.272;26.932;2022-07-12T04:51:01;99313.53;;;28.30;32.75
7966;BME280;4028;43.272;26.932;2022-07-12T04:53:27;99321.34;;;27.78;33.59
7966;BME280;4028;43.272;26.932;2022-07-12T04:55:56;99319.22;;;27.24;33.94
7966;BME280;4028;43.272;26.932;2022-07-12T04:58:23;99331.13;;;26.89;34.32
7966;BME280;4028;43.272;26.932;2022-07-12T05:00:49;99322.06;;;27.01;34.65
7966;BME280;4028;43.272;26.932;2022-07-12T05:03:14;99319.16;;;27.96;33.83
7966;BME280;4028;43.272;26.932;2022-07-12T05:05:40;99316.75;;;27.61;33.27
7966;BME280;4028;43.272;26.932;2022-07-12T05:08:05;99318.22;;;27.86;33.66
7966;BME280;4028;43.272;26.932;2022-07-12T05:10:31;99309.66;;;26.42;34.86
7966;BME280;4028;43.272;26.932;2022-07-12T05:12:56;99326.28;;;26.34;35.31
7966;BME280;4028;43.272;26.932;2022-07-12T05:15:22;99331.28;;;27.00;34.48
7966;BME280;4028;43.272;26.932;2022-07-12T05:17:47;99274.22;;;25.92;35.42
7966;BME280;4028;43.272;26.932;2022-07-12T05:20:13;99329.56;;;24.90;37.24
7966;BME280;4028;43.272;26.932;2022-07-12T05:22:38;99334.97;;;24.30;39.29
7966;BME280;4028;43.272;26.932;2022-07-12T05:25:07;99336.66;;;24.13;39.50
7966;BME280;4028;43.272;26.932;2022-07-12T05:27:34;99335.03;;;23.94;40.01
7966;BME280;4028;43.272;26.932;2022-07-12T05:29:59;99332.91;;;24.14;39.75
7966;BME280;4028;43.272;26.932;2022-07-12T05:32:25;99332.19;;;23.70;39.78
7966;BME280;4028;43.272;26.932;2022-07-12T05:34:50;99292.97;;;23.24;40.99
7966;BME280;4028;43.272;26.932;2022-07-12T05:37:16;99336.06;;;23.74;41.79
7966;BME280;4028;43.272;26.932;2022-07-12T05:39:42;99329.09;;;23.85;41.42
7966;BME280;4028;43.272;26.932;2022-07-12T05:42:07;99324.38;;;23.37;41.20
7966;BME280;4028;43.272;26.932;2022-07-12T05:44:32;99330.56;;;23.44;41.33
7966;BME280;4028;43.272;26.932;2022-07-12T05:46:58;99332.88;;;23.59;41.85
7966;BME280;4028;43.272;26.932;2022-07-12T05:49:23;99292.00;;;23.37;41.35
7966;BME280;4028;43.272;26.932;2022-07-12T05:51:49;99333.78;;;23.34;41.96
7966;BME280;4028;43.272;26.932;2022-07-12T05:54:33;99322.19;;;23.27;42.49
7966;BME280;4028;43.272;26.932;2022-07-12T05:56:58;99330.25;;;23.09;43.45
7966;BME280;4028;43.272;26.932;2022-07-12T05:59:24;99335.38;;;23.17;42.61
7966;BME280;4028;43.272;26.932;2022-07-12T06:01:49;99318.59;;;22.52;43.83
7966;BME280;4028;43.272;26.932;2022-07-12T06:04:15;99304.31;;;22.45;44.25
7966;BME280;4028;43.272;26.932;2022-07-12T06:06:40;99324.84;;;22.77;43.39
7966;BME280;4028;43.272;26.932;2022-07-12T06:09:06;99330.69;;;22.43;43.66
7966;BME280;4028;43.272;26.932;2022-07-12T06:11:31;99271.53;;;21.58;44.76
7966;BME280;4028;43.272;26.932;2022-07-12T06:13:58;99323.44;;;21.85;45.63
7966;BME280;4028;43.272;26.932;2022-07-12T06:16:24;99325.88;;;22.00;46.08
7966;BME280;4028;43.272;26.932;2022-07-12T06:18:50;99326.03;;;22.18;45.47
7966;BME280;4028;43.272;26.932;2022-07-12T06:21:15;99321.44;;;22.25;45.66
7966;BME280;4028;43.272;26.932;2022-07-12T06:23:41;99324.66;;;22.41;46.59
7966;BME280;4028;43.272;26.932;2022-07-12T06:26:06;99298.59;;;22.35;44.59
7966;BME280;4028;43.272;26.932;2022-07-12T06:28:31;99316.94;;;22.51;45.74
7966;BME280;4028;43.272;26.932;2022-07-12T06:30:57;99328.06;;;22.68;45.18
7966;BME280;4028;43.272;26.932;2022-07-12T06:33:22;99316.94;;;22.89;45.77
7966;BME280;4028;43.272;26.932;2022-07-12T06:35:48;99310.72;;;22.89;45.00
7966;BME280;4028;43.272;26.932;2022-07-12T06:38:13;99311.03;;;22.99;45.57
7966;BME280;4028;43.272;26.932;2022-07-12T06:40:39;99316.03;;;23.20;44.64
7966;BME280;4028;43.272;26.932;2022-07-12T06:43:11;99323.56;;;23.12;44.21
7966;BME280;4028;43.272;26.932;2022-07-12T06:45:38;99307.75;;;23.40;43.74
7966;BME280;4028;43.272;26.932;2022-07-12T06:48:04;99306.00;;;23.71;44.66
7966;BME280;4028;43.272;26.932;2022-07-12T06:50:30;99308.78;;;23.82;43.01
7966;BME280;4028;43.272;26.932;2022-07-12T06:52:55;99297.97;;;23.82;43.62
7966;BME280;4028;43.272;26.932;2022-07-12T06:55:22;99301.53;;;24.13;42.54
7966;BME280;4028;43.272;26.932;2022-07-12T06:57:47;99301.16;;;24.09;41.96
7966;BME280;4028;43.272;26.932;2022-07-12T07:00:13;99300.78;;;24.54;41.50
7966;BME280;4028;43.272;26.932;2022-07-12T07:02:38;99304.72;;;24.40;41.81
7966;BME280;4028;43.272;26.932;2022-07-12T07:05:05;99309.72;;;24.55;41.54
7966;BME280;4028;43.272;26.932;2022-07-12T07:07:31;99310.13;;;24.82;42.05
7966;BME280;4028;43.272;26.932;2022-07-12T07:09:56;99301.03;;;24.64;40.94
7966;BME280;4028;43.272;26.932;2022-07-12T07:12:22;99314.38;;;24.78;41.36
7966;BME280;4028;43.272;26.932;2022-07-12T07:14:48;99312.09;;;24.63;40.93
7966;BME280;4028;43.272;26.932;2022-07-12T07:17:15;99275.94;;;24.99;40.64
7966;BME280;4028;43.272;26.932;2022-07-12T07:19:41;99325.09;;;24.84;40.48
7966;BME280;4028;43.272;26.932;2022-07-12T07:22:07;99311.44;;;24.91;40.92
7966;BME280;4028;43.272;26.932;2022-07-12T07:24:32;99320.50;;;24.97;40.75
7966;BME280;4028;43.272;26.932;2022-07-12T07:26:57;99300.63;;;25.03;40.75
7966;BME280;4028;43.272;26.932;2022-07-12T07:29:23;99314.16;;;24.91;40.59
7966;BME280;4028;43.272;26.932;2022-07-12T07:32:07;99305.50;;;25.12;40.27
7966;BME280;4028;43.272;26.932;2022-07-12T07:34:33;99313.59;;;25.71;39.14
7966;BME280;4028;43.272;26.932;2022-07-12T07:36:58;99319.34;;;25.98;39.26
7966;BME280;4028;43.272;26.932;2022-07-12T07:39:23;99312.47;;;26.36;39.00
7966;BME280;4028;43.272;26.932;2022-07-12T07:41:49;99318.47;;;26.21;38.30
7966;BME280;4028;43.272;26.932;2022-07-12T07:44:14;99293.38;;;26.31;38.89
7966;BME280;4028;43.272;26.932;2022-07-12T07:46:40;99320.41;;;26.37;37.73
7966;BME280;4028;43.272;26.932;2022-07-12T07:49:06;99322.34;;;26.54;38.87
7966;BME280;4028;43.272;26.932;2022-07-12T07:51:31;99322.78;;;25.93;37.97
7966;BME280;4028;43.272;26.932;2022-07-12T07:53:57;99320.91;;;25.71;39.04
7966;BME280;4028;43.272;26.932;2022-07-12T07:56:22;99317.75;;;26.14;38.95
7966;BME280;4028;43.272;26.932;2022-07-12T07:58:47;99324.53;;;26.85;37.77
7966;BME280;4028;43.272;26.932;2022-07-12T08:01:13;99328.69;;;27.38;37.00
7966;BME280;4028;43.272;26.932;2022-07-12T08:03:38;99295.91;;;27.11;36.74
7966;BME280;4028;43.272;26.932;2022-07-12T08:06:05;99326.00;;;27.43;37.45
7966;BME280;4028;43.272;26.932;2022-07-12T08:08:30;99275.50;;;27.64;36.95
7966;BME280;4028;43.272;26.932;2022-07-12T08:10:56;99321.28;;;27.94;35.66
7966;BME280;4028;43.272;26.932;2022-07-12T08:13:22;99322.00;;;27.85;36.36
7966;BME280;4028;43.272;26.932;2022-07-12T08:15:48;99328.63;;;27.72;36.10
7966;BME280;4028;43.272;26.932;2022-07-12T08:18:14;99330.09;;;28.02;36.92
7966;BME280;4028;43.272;26.932;2022-07-12T08:20:39;99339.75;;;27.70;36.75
7966;BME280;4028;43.272;26.932;2022-07-12T08:23:05;99322.47;;;27.43;36.39
7966;BME280;4028;43.272;26.932;2022-07-12T08:25:30;99335.59;;;27.68;36.95
7966;BME280;4028;43.272;26.932;2022-07-12T08:27:56;99328.59;;;28.11;35.76
7966;BME280;4028;43.272;26.932;2022-07-12T08:30:22;99331.06;;;27.90;36.34
7966;BME280;4028;43.272;26.932;2022-07-12T08:32:47;99328.41;;;27.95;36.07
7966;BME280;4028;43.272;26.932;2022-07-12T08:35:13;99326.53;;;28.23;36.27
7966;BME280;4028;43.272;26.932;2022-07-12T08:37:42;99325.22;;;28.47;36.25
7966;BME280;4028;43.272;26.932;2022-07-12T08:40:08;99317.06;;;28.80;35.96
7966;BME280;4028;43.272;26.932;2022-07-12T08:42:34;99325.22;;;28.47;35.88
7966;BME280;4028;43.272;26.932;2022-07-12T08:45:00;99326.25;;;28.41;36.21
7966;BME280;4028;43.272;26.932;2022-07-12T08:47:25;99328.38;;;27.18;37.17
7966;BME280;4028;43.272;26.932;2022-07-12T08:50:19;99328.81;;;26.24;38.83
7966;BME280;4028;43.272;26.932;2022-07-12T08:52:47;99321.53;;;26.70;38.82
7966;BME280;4028;43.272;26.932;2022-07-12T08:55:26;99322.72;;;27.41;38.43
7966;BME280;4028;43.272;26.932;2022-07-12T08:57:55;99318.00;;;27.92;37.42
7966;BME280;4028;43.272;26.932;2022-07-12T09:00:21;99319.34;;;28.34;37.12
7966;BME280;4028;43.272;26.932;2022-07-12T09:02:52;99310.81;;;28.30;36.67
7966;BME280;4028;43.272;26.932;2022-07-12T09:05:20;99315.03;;;28.16;37.01
7966;BME280;4028;43.272;26.932;2022-07-12T09:07:47;99319.03;;;27.86;37.44
7966;BME280;4028;43.272;26.932;2022-07-12T09:10:13;99311.94;;;28.07;37.14
7966;BME280;4028;43.272;26.932;2022-07-12T09:12:40;99306.56;;;28.34;37.45
7966;BME280;4028;43.272;26.932;2022-07-12T09:17:46;99313.38;;;28.15;36.40
7966;BME280;4028;43.272;26.932;2022-07-12T09:20:12;99308.84;;;27.77;38.24
7966;BME280;4028;43.272;26.932;2022-07-12T09:22:47;99307.75;;;27.22;38.36
7966;BME280;4028;43.272;26.932;2022-07-12T09:25:16;99286.03;;;27.61;38.62
7966;BME280;4028;43.272;26.932;2022-07-12T09:27:54;99299.66;;;28.05;37.15
7966;BME280;4028;43.272;26.932;2022-07-12T09:30:21;99306.38;;;28.41;37.49
7966;BME280;4028;43.272;26.932;2022-07-12T09:32:52;99308.31;;;28.23;36.44
7966;BME280;4028;43.272;26.932;2022-07-12T09:35:36;99290.88;;;28.73;37.54
7966;BME280;4028;43.272;26.932;2022-07-12T09:38:20;99300.22;;;28.83;36.90
7966;BME280;4028;43.272;26.932;2022-07-12T09:40:46;99296.88;;;29.45;35.99
7966;BME280;4028;43.272;26.932;2022-07-12T09:43:14;99298.06;;;29.54;35.43
7966;BME280;4028;43.272;26.932;2022-07-12T09:45:40;99292.22;;;29.88;35.25
7966;BME280;4028;43.272;26.932;2022-07-12T09:48:07;99280.66;;;29.65;34.84
7966;BME280;4028;43.272;26.932;2022-07-12T09:50:35;99292.56;;;29.12;36.21
7966;BME280;4028;43.272;26.932;2022-07-12T09:53:02;99298.41;;;29.31;36.43
7966;BME280;4028;43.272;26.932;2022-07-12T09:55:30;99307.78;;;29.45;36.40
7966;BME280;4028;43.272;26.932;2022-07-12T09:58:01;99289.97;;;29.74;36.16
7966;BME280;4028;43.272;26.932;2022-07-12T10:00:27;99288.78;;;29.55;34.92
7966;BME280;4028;43.272;26.932;2022-07-12T10:02:55;99305.47;;;29.26;36.39
7966;BME280;4028;43.272;26.932;2022-07-12T10:05:23;99291.94;;;28.99;36.53
7966;BME280;4028;43.272;26.932;2022-07-12T10:07:50;99291.72;;;29.48;36.58
7966;BME280;4028;43.272;26.932;2022-07-12T10:10:16;99298.06;;;29.54;36.62
7966;BME280;4028;43.272;26.932;2022-07-12T10:12:42;99285.16;;;29.07;35.62
7966;BME280;4028;43.272;26.932;2022-07-12T10:15:16;99274.19;;;29.34;36.13
7966;BME280;4028;43.272;26.932;2022-07-12T10:17:51;99282.13;;;28.98;36.52
7966;BME280;4028;43.272;26.932;2022-07-12T10:20:23;99281.47;;;28.91;36.85
7966;BME280;4028;43.272;26.932;2022-07-12T10:22:55;99289.19;;;28.94;37.11
7966;BME280;4028;43.272;26.932;2022-07-12T10:25:34;99282.53;;;29.17;36.48
7966;BME280;4028;43.272;26.932;2022-07-12T10:28:01;99278.72;;;28.86;37.00
7966;BME280;4028;43.272;26.932;2022-07-12T10:30:27;99276.00;;;29.18;36.55
7966;BME280;4028;43.272;26.932;2022-07-12T10:32:55;99280.19;;;29.36;35.80
7966;BME280;4028;43.272;26.932;2022-07-12T10:35:27;99274.78;;;29.41;36.22
7966;BME280;4028;43.272;26.932;2022-07-12T10:40:38;99289.22;;;28.99;37.12
7966;BME280;4028;43.272;26.932;2022-07-12T10:48:04;99294.16;;;28.21;36.99
7966;BME280;4028;43.272;26.932;2022-07-12T11:00:58;99280.06;;;28.30;37.50
7966;BME280;4028;43.272;26.932;2022-07-12T11:03:30;99280.03;;;28.24;38.49
7966;BME280;4028;43.272;26.932;2022-07-12T11:06:01;99279.34;;;28.61;36.77
7966;BME280;4028;43.272;26.932;2022-07-12T11:08:29;99282.84;;;28.89;35.76
7966;BME280;4028;43.272;26.932;2022-07-12T11:10:55;99276.09;;;28.96;37.03
7966;BME280;4028;43.272;26.932;2022-07-12T11:13:22;99277.63;;;28.82;35.36
7966;BME280;4028;43.272;26.932;2022-07-12T11:15:59;99238.75;;;28.60;35.17
7966;BME280;4028;43.272;26.932;2022-07-12T11:18:29;99270.59;;;28.59;36.42
7966;BME280;4028;43.272;26.932;2022-07-12T11:20:57;99268.91;;;28.53;36.13
7966;BME280;4028;43.272;26.932;2022-07-12T11:23:24;99272.44;;;29.13;37.62
7966;BME280;4028;43.272;26.932;2022-07-12T11:25:50;99272.97;;;29.57;35.65
7966;BME280;4028;43.272;26.932;2022-07-12T11:28:17;99259.91;;;29.17;35.78
7966;BME280;4028;43.272;26.932;2022-07-12T11:30:53;99282.81;;;29.21;35.85
7966;BME280;4028;43.272;26.932;2022-07-12T11:33:27;99270.22;;;29.10;35.23
7966;BME280;4028;43.272;26.932;2022-07-12T11:35:57;99270.50;;;28.49;36.22
7966;BME280;4028;43.272;26.932;2022-07-12T11:38:24;99267.28;;;28.84;38.43
7966;BME280;4028;43.272;26.932;2022-07-12T11:41:01;99267.19;;;29.06;36.79
7966;BME280;4028;43.272;26.932;2022-07-12T11:43:27;99270.28;;;29.20;35.75
7966;BME280;4028;43.272;26.932;2022-07-12T11:45:54;99284.25;;;29.29;36.31
7966;BME280;4028;43.272;26.932;2022-07-12T11:48:21;99263.78;;;29.26;35.77
7966;BME280;4028;43.272;26.932;2022-07-12T11:50:48;99273.47;;;29.07;36.37
7966;BME280;4028;43.272;26.932;2022-07-12T11:53:16;99255.44;;;28.68;36.39
7966;BME280;4028;43.272;26.932;2022-07-12T11:55:47;99284.25;;;28.64;36.09
7966;BME280;4028;43.272;26.932;2022-07-12T11:58:14;99284.13;;;28.49;35.89
7966;BME280;4028;43.272;26.932;2022-07-12T12:00:40;99280.75;;;28.37;36.19
7966;BME280;4028;43.272;26.932;2022-07-12T12:03:06;99288.50;;;28.28;36.15
7966;BME280;4028;43.272;26.932;2022-07-12T12:05:33;99291.88;;;28.13;36.54
7966;BME280;4028;43.272;26.932;2022-07-12T12:07:59;99290.13;;;28.02;36.51
7966;BME280;4028;43.272;26.932;2022-07-12T12:10:25;99277.59;;;28.01;36.48
7966;BME280;4028;43.272;26.932;2022-07-12T12:12:55;99279.06;;;27.87;37.31
7966;BME280;4028;43.272;26.932;2022-07-12T12:15:26;99279.81;;;27.82;37.59
7966;BME280;4028;43.272;26.932;2022-07-12T12:18:05;99277.91;;;27.83;36.05
7966;BME280;4028;43.272;26.932;2022-07-12T12:20:32;99276.22;;;27.38;36.54
7966;BME280;4028;43.272;26.932;2022-07-12T12:22:59;99275.47;;;27.42;36.76
7966;BME280;4028;43.272;26.932;2022-07-12T12:25:26;99280.97;;;27.47;37.00
7966;BME280;4028;43.272;26.932;2022-07-12T12:28:02;99284.50;;;27.48;36.94
7966;BME280;4028;43.272;26.932;2022-07-12T12:30:30;99258.72;;;27.29;37.72
7966;BME280;4028;43.272;26.932;2022-07-12T12:32:58;99282.00;;;27.25;37.98
7966;BME280;4028;43.272;26.932;2022-07-12T12:35:37;99286.84;;;27.23;37.91
7966;BME280;4028;43.272;26.932;2022-07-12T12:40:35;99288.19;;;27.20;37.56
7966;BME280;4028;43.272;26.932;2022-07-12T12:43:12;99254.78;;;27.19;37.85
7966;BME280;4028;43.272;26.932;2022-07-12T12:45:51;99280.53;;;27.56;38.04
7966;BME280;4028;43.272;26.932;2022-07-12T12:48:28;99280.16;;;27.47;37.85
7966;BME280;4028;43.272;26.932;2022-07-12T12:51:03;99277.16;;;27.48;38.51
7966;BME280;4028;43.272;26.932;2022-07-12T12:53:28;99273.19;;;27.73;38.19
7966;BME280;4028;43.272;26.932;2022-07-12T12:55:55;99270.91;;;27.87;37.92
7966;BME280;4028;43.272;26.932;2022-07-12T12:58:22;99273.25;;;27.78;37.65
7966;BME280;4028;43.272;26.932;2022-07-12T13:00:51;99278.38;;;27.75;37.99
7966;BME280;4028;43.272;26.932;2022-07-12T13:03:18;99274.44;;;27.87;37.82
7966;BME280;4028;43.272;26.932;2022-07-12T13:05:44;99241.16;;;27.75;37.91
7966;BME280;4028;43.272;26.932;2022-07-12T13:08:11;99272.41;;;27.99;37.58
7966;BME280;4028;43.272;26.932;2022-07-12T13:10:39;99272.50;;;28.10;36.57
7966;BME280;4028;43.272;26.932;2022-07-12T13:13:06;99275.72;;;28.02;36.93
7966;BME280;4028;43.272;26.932;2022-07-12T13:15:32;99271.28;;;27.95;37.04
7966;BME280;4028;43.272;26.932;2022-07-12T13:17:58;99265.25;;;27.50;36.16
7966;BME280;4028;43.272;26.932;2022-07-12T13:20:25;99269.59;;;27.51;36.77
7966;BME280;4028;43.272;26.932;2022-07-12T13:22:51;99266.88;;;27.51;37.35
7966;BME280;4028;43.272;26.932;2022-07-12T13:25:17;99245.50;;;27.37;36.60
7966;BME280;4028;43.272;26.932;2022-07-12T13:27:43;99277.06;;;27.60;36.77
7966;BME280;4028;43.272;26.932;2022-07-12T13:30:11;99268.81;;;27.72;35.94
7966;BME280;4028;43.272;26.932;2022-07-12T13:32:38;99268.63;;;27.79;36.45